sensor_id;sensor_type;location;lat;lon;timestamp;pressure;altitude;pressure_sealevel;temperature;humidity
70072;BME280;57434;42.794;23.302;2022-09-30T00:01:07;95415.81;;;12.99;88.05
70072;BME280;57434;42.794;23.302;2022-09-30T00:03:42;95035.59;;;10.64;88.10
70072;BME280;57434;42.794;23.302;2022-09-30T00:06:26;94921.31;;;10.03;88.02
70072;BME280;57434;42.794;23.302;2022-09-30T00:08:58;95293.09;;;12.34;88.26
70072;BME280;57434;42.794;23.302;2022-09-30T00:11:40;94974.38;;;10.51;87.76
70072;BME280;57434;42.794;23.302;2022-09-30T00:14:31;94961.78;;;9.96;87.55
70072;BME280;57434;42.794;23.302;2022-09-30T00:17:11;95260.63;;;11.83;88.11
70072;BME280;57434;42.794;23.302;2022-09-30T00:19:39;95233.53;;;11.80;88.79
70072;BME280;57434;42.794;23.302;2022-09-30T00:22:08;95030.97;;;10.38;88.12
70072;BME280;57434;42.794;23.302;2022-09-30T00:25:14;95275.97;;;12.15;88.41
70072;BME280;57434;42.794;23.302;2022-09-30T00:27:53;95266.25;;;12.22;88.07
70072;BME280;57434;42.794;23.302;2022-09-30T00:30:29;94986.28;;;10.07;87.79
70072;BME280;57434;42.794;23.302;2022-09-30T00:33:01;95038.44;;;10.75;88.06
70072;BME280;57434;42.794;23.302;2022-09-30T00:36:00;95033.75;;;10.33;88.26
70072;BME280;57434;42.794;23.302;2022-09-30T00:38:54;95107.59;;;11.06;88.16
70072;BME280;57434;42.794;23.302;2022-09-30T00:41:40;95240.69;;;11.75;87.59
70072;BME280;57434;42.794;23.302;2022-09-30T00:44:42;95352.38;;;12.86;87.56
70072;BME280;57434;42.794;23.302;2022-09-30T00:50:09;95241.19;;;12.07;87.12
70072;BME280;57434;42.794;23.302;2022-09-30T00:52:37;95199.31;;;11.76;87.50
70072;BME280;57434;42.794;23.302;2022-09-30T00:55:08;95141.06;;;11.20;87.51
70072;BME280;57434;42.794;23.302;2022-09-30T00:57:41;95092.03;;;11.05;87.61
70072;BME280;57434;42.794;23.302;2022-09-30T01:00:17;95218.94;;;11.37;87.24
70072;BME280;57434;42.794;23.302;2022-09-30T01:03:15;94969.66;;;9.87;86.52
70072;BME280;57434;42.794;23.302;2022-09-30T01:05:48;95138.50;;;11.39;86.95
70072;BME280;57434;42.794;23.302;2022-09-30T01:08:42;95174.78;;;11.54;87.49
70072;BME280;57434;42.794;23.302;2022-09-30T01:11:29;95179.13;;;11.83;87.49
70072;BME280;57434;42.794;23.302;2022-09-30T01:14:21;95352.66;;;12.72;87.60
70072;BME280;57434;42.794;23.302;2022-09-30T01:23:12;95353.66;;;12.74;88.21
70072;BME280;57434;42.794;23.302;2022-09-30T01:26:02;95358.03;;;12.70;87.99
70072;BME280;57434;42.794;23.302;2022-09-30T01:33:55;95370.34;;;12.67;88.11
70072;BME280;57434;42.794;23.302;2022-09-30T01:36:57;95367.75;;;12.74;87.97
70072;BME280;57434;42.794;23.302;2022-09-30T01:43:06;95269.72;;;11.22;87.32
70072;BME280;57434;42.794;23.302;2022-09-30T01:45:41;95396.00;;;11.70;87.47
70072;BME280;57434;42.794;23.302;2022-09-30T01:48:39;95063.84;;;9.78;87.38
70072;BME280;57434;42.794;23.302;2022-09-30T01:51:27;95081.72;;;9.87;87.02
70072;BME280;57434;42.794;23.302;2022-09-30T01:54:23;95325.72;;;11.59;87.21
70072;BME280;57434;42.794;23.302;2022-09-30T01:56:59;95377.38;;;11.73;86.92
70072;BME280;57434;42.794;23.302;2022-09-30T02:00:07;95377.13;;;11.76;87.24
70072;BME280;57434;42.794;23.302;2022-09-30T02:06:18;95330.75;;;11.33;86.96
70072;BME280;57434;42.794;23.302;2022-09-30T02:09:03;95201.91;;;10.22;87.39
70072;BME280;57434;42.794;23.302;2022-09-30T02:11:53;95105.66;;;9.45;87.87
70072;BME280;57434;42.794;23.302;2022-09-30T02:14:43;95389.66;;;11.81;87.50
70072;BME280;57434;42.794;23.302;2022-09-30T02:17:40;95289.66;;;11.30;87.28
70072;BME280;57434;42.794;23.302;2022-09-30T02:20:27;95385.06;;;11.83;86.98
70072;BME280;57434;42.794;23.302;2022-09-30T02:23:02;95377.38;;;11.78;86.87
70072;BME280;57434;42.794;23.302;2022-09-30T02:25:43;95372.50;;;11.73;87.01
70072;BME280;57434;42.794;23.302;2022-09-30T02:28:19;95378.69;;;11.94;86.62
70072;BME280;57434;42.794;23.302;2022-09-30T02:30:50;95355.66;;;11.79;86.49
70072;BME280;57434;42.794;23.302;2022-09-30T02:33:33;95222.13;;;10.85;86.31
70072;BME280;57434;42.794;23.302;2022-09-30T02:36:19;95357.22;;;11.85;86.89
70072;BME280;57434;42.794;23.302;2022-09-30T02:38:52;95365.94;;;12.04;86.45
70072;BME280;57434;42.794;23.302;2022-09-30T02:41:23;95394.31;;;12.06;86.96
70072;BME280;57434;42.794;23.302;2022-09-30T02:43:55;95271.22;;;11.12;86.69
70072;BME280;57434;42.794;23.302;2022-09-30T02:47:25;95386.38;;;12.05;86.35
70072;BME280;57434;42.794;23.302;2022-09-30T02:55:41;95399.13;;;11.95;87.86
70072;BME280;57434;42.794;23.302;2022-09-30T02:58:28;95230.59;;;10.96;88.24
70072;BME280;57434;42.794;23.302;2022-09-30T03:01:07;95213.25;;;10.44;88.34
70072;BME280;57434;42.794;23.302;2022-09-30T03:04:12;95452.13;;;12.18;88.45
70072;BME280;57434;42.794;23.302;2022-09-30T03:06:57;94949.09;;;8.99;89.09
70072;BME280;57434;42.794;23.302;2022-09-30T03:09:33;95399.97;;;12.23;89.82
70072;BME280;57434;42.794;23.302;2022-09-30T03:12:31;95304.34;;;10.97;90.58
70072;BME280;57434;42.794;23.302;2022-09-30T03:25:34;95121.97;;;10.37;91.04
70072;BME280;57434;42.794;23.302;2022-09-30T03:28:21;95308.84;;;11.48;91.60
70072;BME280;57434;42.794;23.302;2022-09-30T03:34:14;95395.63;;;12.16;92.04
70072;BME280;57434;42.794;23.302;2022-09-30T03:40:22;95382.53;;;11.97;92.97
70072;BME280;57434;42.794;23.302;2022-09-30T03:43:05;94916.59;;;9.07;92.21
70072;BME280;57434;42.794;23.302;2022-09-30T03:46:03;95192.44;;;10.67;92.21
70072;BME280;57434;42.794;23.302;2022-09-30T03:48:32;95017.53;;;9.83;91.96
70072;BME280;57434;42.794;23.302;2022-09-30T03:51:05;95110.78;;;10.43;91.77
70072;BME280;57434;42.794;23.302;2022-09-30T03:53:42;95294.00;;;11.31;91.83
70072;BME280;57434;42.794;23.302;2022-09-30T03:56:20;94940.72;;;8.99;91.39
70072;BME280;57434;42.794;23.302;2022-09-30T04:01:47;95038.88;;;9.75;91.42
70072;BME280;57434;42.794;23.302;2022-09-30T04:04:21;95188.06;;;10.61;92.63
70072;BME280;57434;42.794;23.302;2022-09-30T04:07:02;95120.13;;;10.29;93.11
70072;BME280;57434;42.794;23.302;2022-09-30T04:09:43;95315.53;;;11.67;93.52
70072;BME280;57434;42.794;23.302;2022-09-30T04:12:11;95409.38;;;12.14;93.66
70072;BME280;57434;42.794;23.302;2022-09-30T04:15:02;95361.06;;;11.99;93.53
70072;BME280;57434;42.794;23.302;2022-09-30T04:17:33;95139.13;;;10.62;93.22
70072;BME280;57434;42.794;23.302;2022-09-30T04:20:03;95131.94;;;10.44;93.30
70072;BME280;57434;42.794;23.302;2022-09-30T04:22:58;95245.41;;;11.02;94.01
70072;BME280;57434;42.794;23.302;2022-09-30T04:25:34;95424.94;;;11.93;94.05
70072;BME280;57434;42.794;23.302;2022-09-30T04:28:05;95424.31;;;12.54;95.08
70072;BME280;57434;42.794;23.302;2022-09-30T04:30:33;95320.69;;;11.85;95.40
70072;BME280;57434;42.794;23.302;2022-09-30T04:33:00;95429.16;;;12.42;95.02
70072;BME280;57434;42.794;23.302;2022-09-30T04:35:27;95345.97;;;11.91;95.41
70072;BME280;57434;42.794;23.302;2022-09-30T04:37:54;95308.03;;;11.25;95.67
70072;BME280;57434;42.794;23.302;2022-09-30T04:40:21;95322.66;;;11.63;96.20
70072;BME280;57434;42.794;23.302;2022-09-30T04:42:48;95344.44;;;11.84;96.66
70072;BME280;57434;42.794;23.302;2022-09-30T04:45:16;95359.19;;;11.57;96.66
70072;BME280;57434;42.794;23.302;2022-09-30T04:47:43;95440.25;;;11.86;96.38
70072;BME280;57434;42.794;23.302;2022-09-30T04:50:10;95496.66;;;12.31;96.62
70072;BME280;57434;42.794;23.302;2022-09-30T04:52:41;95304.81;;;10.90;96.57
70072;BME280;57434;42.794;23.302;2022-09-30T04:55:09;95379.59;;;11.52;96.56
70072;BME280;57434;42.794;23.302;2022-09-30T04:57:36;95533.44;;;12.22;96.15
70072;BME280;57434;42.794;23.302;2022-09-30T05:00:07;95491.81;;;12.43;96.53
70072;BME280;57434;42.794;23.302;2022-09-30T05:02:37;95431.59;;;11.96;96.10
70072;BME280;57434;42.794;23.302;2022-09-30T05:05:16;95277.06;;;11.08;95.66
70072;BME280;57434;42.794;23.302;2022-09-30T05:07:47;95389.66;;;11.86;95.21
70072;BME280;57434;42.794;23.302;2022-09-30T05:10:28;95102.22;;;10.09;94.65
70072;BME280;57434;42.794;23.302;2022-09-30T05:12:56;95231.31;;;10.85;94.20
70072;BME280;57434;42.794;23.302;2022-09-30T05:15:30;95225.97;;;10.88;94.29
70072;BME280;57434;42.794;23.302;2022-09-30T05:20:56;95327.63;;;11.14;94.63
70072;BME280;57434;42.794;23.302;2022-09-30T05:23:27;95302.28;;;10.97;94.53
70072;BME280;57434;42.794;23.302;2022-09-30T05:25:55;95476.19;;;12.25;94.28
70072;BME280;57434;42.794;23.302;2022-09-30T05:28:22;95512.28;;;12.43;94.27
70072;BME280;57434;42.794;23.302;2022-09-30T05:31:01;95336.00;;;11.03;94.97
70072;BME280;57434;42.794;23.302;2022-09-30T05:33:29;95420.56;;;11.75;95.13
70072;BME280;57434;42.794;23.302;2022-09-30T05:36:01;95285.72;;;11.05;94.60
70072;BME280;57434;42.794;23.302;2022-09-30T05:38:47;95249.44;;;10.42;95.38
70072;BME280;57434;42.794;23.302;2022-09-30T05:41:39;95416.50;;;11.82;95.24
70072;BME280;57434;42.794;23.302;2022-09-30T05:44:21;95370.38;;;11.46;94.71
70072;BME280;57434;42.794;23.302;2022-09-30T05:47:04;95271.72;;;11.16;94.33
70072;BME280;57434;42.794;23.302;2022-09-30T05:49:33;95407.59;;;12.00;94.21
70072;BME280;57434;42.794;23.302;2022-09-30T05:52:14;95297.06;;;11.33;93.02
70072;BME280;57434;42.794;23.302;2022-09-30T05:54:42;95542.53;;;12.99;93.78
70072;BME280;57434;42.794;23.302;2022-09-30T05:57:09;95535.91;;;13.07;93.44
70072;BME280;57434;42.794;23.302;2022-09-30T05:59:36;95529.25;;;13.05;93.34
70072;BME280;57434;42.794;23.302;2022-09-30T06:02:03;95551.53;;;13.19;92.63
70072;BME280;57434;42.794;23.302;2022-09-30T06:04:31;95425.56;;;12.25;92.89
70072;BME280;57434;42.794;23.302;2022-09-30T06:06:58;95439.13;;;12.38;93.12
70072;BME280;57434;42.794;23.302;2022-09-30T06:09:25;95550.25;;;13.20;94.01
70072;BME280;57434;42.794;23.302;2022-09-30T06:11:52;95429.88;;;12.20;94.39
70072;BME280;57434;42.794;23.302;2022-09-30T06:14:20;95534.88;;;13.05;94.03
70072;BME280;57434;42.794;23.302;2022-09-30T06:16:47;95393.03;;;12.13;94.23
70072;BME280;57434;42.794;23.302;2022-09-30T06:19:14;95395.09;;;12.12;93.66
70072;BME280;57434;42.794;23.302;2022-09-30T06:21:41;95452.69;;;12.50;93.41
70072;BME280;57434;42.794;23.302;2022-09-30T06:24:08;95520.53;;;13.03;93.05
70072;BME280;57434;42.794;23.302;2022-09-30T06:26:36;95522.84;;;13.04;93.09
70072;BME280;57434;42.794;23.302;2022-09-30T06:29:03;95568.69;;;13.38;93.21
70072;BME280;57434;42.794;23.302;2022-09-30T06:31:30;95497.50;;;12.99;91.76
70072;BME280;57434;42.794;23.302;2022-09-30T06:33:57;95438.38;;;12.60;92.27
70072;BME280;57434;42.794;23.302;2022-09-30T06:36:24;95458.59;;;12.69;92.85
70072;BME280;57434;42.794;23.302;2022-09-30T06:38:52;95602.00;;;13.45;92.43
70072;BME280;57434;42.794;23.302;2022-09-30T06:41:19;95496.22;;;12.88;92.56
70072;BME280;57434;42.794;23.302;2022-09-30T06:43:46;95374.16;;;12.25;91.87
70072;BME280;57434;42.794;23.302;2022-09-30T06:46:31;95535.91;;;13.18;91.26
70072;BME280;57434;42.794;23.302;2022-09-30T06:48:59;95563.59;;;13.42;90.94
70072;BME280;57434;42.794;23.302;2022-09-30T06:51:39;95584.78;;;13.88;90.94
70072;BME280;57434;42.794;23.302;2022-09-30T06:54:07;95597.06;;;13.96;91.08
70072;BME280;57434;42.794;23.302;2022-09-30T06:56:34;95519.50;;;13.39;90.68
70072;BME280;57434;42.794;23.302;2022-09-30T06:59:02;95620.84;;;14.23;89.60
70072;BME280;57434;42.794;23.302;2022-09-30T07:01:29;95501.34;;;13.46;89.68
70072;BME280;57434;42.794;23.302;2022-09-30T07:03:56;95451.41;;;13.13;88.28
70072;BME280;57434;42.794;23.302;2022-09-30T07:06:24;95514.41;;;13.49;88.00
70072;BME280;57434;42.794;23.302;2022-09-30T07:08:51;95525.13;;;13.34;88.67
70072;BME280;57434;42.794;23.302;2022-09-30T07:11:18;95452.47;;;12.87;88.91
70072;BME280;57434;42.794;23.302;2022-09-30T07:13:46;95499.53;;;12.76;90.46
70072;BME280;57434;42.794;23.302;2022-09-30T07:16:15;95607.84;;;13.98;90.40
70072;BME280;57434;42.794;23.302;2022-09-30T07:18:43;95621.63;;;14.12;90.95
70072;BME280;57434;42.794;23.302;2022-09-30T07:21:13;95632.66;;;14.21;89.52
70072;BME280;57434;42.794;23.302;2022-09-30T07:23:42;95638.03;;;14.19;88.65
70072;BME280;57434;42.794;23.302;2022-09-30T07:26:16;95522.56;;;13.58;89.64
70072;BME280;57434;42.794;23.302;2022-09-30T07:28:44;95641.25;;;14.63;89.87
70072;BME280;57434;42.794;23.302;2022-09-30T07:31:14;95525.94;;;14.20;88.22
70072;BME280;57434;42.794;23.302;2022-09-30T07:33:59;95514.75;;;13.98;89.13
70072;BME280;57434;42.794;23.302;2022-09-30T07:36:27;95625.84;;;14.64;87.14
70072;BME280;57434;42.794;23.302;2022-09-30T07:38:59;95602.75;;;14.65;87.37
70072;BME280;57434;42.794;23.302;2022-09-30T07:41:27;95466.50;;;13.21;87.75
70072;BME280;57434;42.794;23.302;2022-09-30T07:43:55;95324.78;;;12.63;87.05
70072;BME280;57434;42.794;23.302;2022-09-30T07:46:25;95491.47;;;13.86;87.45
70072;BME280;57434;42.794;23.302;2022-09-30T07:48:58;95577.06;;;13.94;88.42
70072;BME280;57434;42.794;23.302;2022-09-30T07:51:48;95389.50;;;12.79;89.14
70072;BME280;57434;42.794;23.302;2022-09-30T07:54:31;95537.09;;;13.84;89.89
70072;BME280;57434;42.794;23.302;2022-09-30T07:57:04;95549.38;;;13.98;88.94
70072;BME280;57434;42.794;23.302;2022-09-30T07:59:38;95643.44;;;15.33;87.70
70072;BME280;57434;42.794;23.302;2022-09-30T08:02:07;95654.47;;;15.72;86.70
70072;BME280;57434;42.794;23.302;2022-09-30T08:04:36;95570.22;;;14.94;84.65
70072;BME280;57434;42.794;23.302;2022-09-30T08:07:09;95595.63;;;15.35;84.06
70072;BME280;57434;42.794;23.302;2022-09-30T08:09:36;95687.13;;;16.03;82.85
70072;BME280;57434;42.794;23.302;2022-09-30T08:12:08;95688.16;;;16.30;83.11
70072;BME280;57434;42.794;23.302;2022-09-30T08:14:43;95423.56;;;14.66;83.54
70072;BME280;57434;42.794;23.302;2022-09-30T08:20:18;95448.03;;;15.42;79.29
70072;BME280;57434;42.794;23.302;2022-09-30T08:22:59;95541.81;;;16.81;79.16
70072;BME280;57434;42.794;23.302;2022-09-30T08:25:26;95609.34;;;17.34;78.55
70072;BME280;57434;42.794;23.302;2022-09-30T08:27:59;95647.66;;;17.91;77.11
70072;BME280;57434;42.794;23.302;2022-09-30T08:30:26;95653.00;;;18.53;75.38
70072;BME280;57434;42.794;23.302;2022-09-30T08:32:53;95617.69;;;18.88;71.18
70072;BME280;57434;42.794;23.302;2022-09-30T08:35:22;95594.28;;;19.29;71.03
70072;BME280;57434;42.794;23.302;2022-09-30T08:37:51;95571.44;;;19.55;70.12
70072;BME280;57434;42.794;23.302;2022-09-30T08:40:31;95675.88;;;20.02;68.51
70072;BME280;57434;42.794;23.302;2022-09-30T08:53:47;95523.47;;;20.09;64.49
70072;BME280;57434;42.794;23.302;2022-09-30T08:56:26;95674.25;;;21.13;64.71
70072;BME280;57434;42.794;23.302;2022-09-30T09:04:44;95671.09;;;21.98;62.90
70072;BME280;57434;42.794;23.302;2022-09-30T09:07:38;95597.41;;;21.89;62.06
70072;BME280;57434;42.794;23.302;2022-09-30T09:13:08;95679.31;;;23.01;59.73
70072;BME280;57434;42.794;23.302;2022-09-30T09:15:52;95537.94;;;22.33;59.44
70072;BME280;57434;42.794;23.302;2022-09-30T09:21:14;95681.41;;;24.28;50.31
70072;BME280;57434;42.794;23.302;2022-09-30T09:24:00;95568.13;;;23.37;52.49
70072;BME280;57434;42.794;23.302;2022-09-30T09:26:34;95595.81;;;23.67;51.22
70072;BME280;57434;42.794;23.302;2022-09-30T09:31:56;95225.88;;;21.54;51.39
70072;BME280;57434;42.794;23.302;2022-09-30T09:34:39;95659.16;;;23.79;46.99
70072;BME280;57434;42.794;23.302;2022-09-30T09:40:20;95562.66;;;23.32;50.54
70072;BME280;57434;42.794;23.302;2022-09-30T09:45:30;95679.66;;;24.57;48.53
70072;BME280;57434;42.794;23.302;2022-09-30T09:48:00;95633.34;;;23.86;49.55
70072;BME280;57434;42.794;23.302;2022-09-30T09:50:42;95675.63;;;25.20;49.94
70072;BME280;57434;42.794;23.302;2022-09-30T09:53:46;95604.78;;;25.05;47.63
70072;BME280;57434;42.794;23.302;2022-09-30T09:56:17;95651.91;;;25.81;46.07
70072;BME280;57434;42.794;23.302;2022-09-30T09:59:07;95672.91;;;26.27;44.31
70072;BME280;57434;42.794;23.302;2022-09-30T10:22:29;95537.00;;;24.92;47.73
70072;BME280;57434;42.794;23.302;2022-09-30T10:25:21;95657.56;;;26.52;46.99
70072;BME280;57434;42.794;23.302;2022-09-30T10:27:54;95655.69;;;26.74;41.88
70072;BME280;57434;42.794;23.302;2022-09-30T10:30:58;95644.06;;;27.01;42.37
70072;BME280;57434;42.794;23.302;2022-09-30T10:33:45;95569.94;;;26.72;42.21
70072;BME280;57434;42.794;23.302;2022-09-30T10:36:18;95652.47;;;26.23;40.55
70072;BME280;57434;42.794;23.302;2022-09-30T10:38:58;95653.34;;;26.16;40.94
70072;BME280;57434;42.794;23.302;2022-09-30T10:41:36;95598.50;;;25.78;38.25
70072;BME280;57434;42.794;23.302;2022-09-30T10:44:06;95642.53;;;26.34;38.02
70072;BME280;57434;42.794;23.302;2022-09-30T10:46:40;95653.97;;;26.24;38.78
70072;BME280;57434;42.794;23.302;2022-09-30T10:49:29;95641.31;;;25.56;38.79
70072;BME280;57434;42.794;23.302;2022-09-30T10:51:59;95650.09;;;25.58;38.88
70072;BME280;57434;42.794;23.302;2022-09-30T10:57:14;95423.94;;;24.78;38.78
70072;BME280;57434;42.794;23.302;2022-09-30T10:59:42;95652.78;;;26.27;37.44
70072;BME280;57434;42.794;23.302;2022-09-30T11:02:15;95634.09;;;25.38;39.44
70072;BME280;57434;42.794;23.302;2022-09-30T11:05:12;95638.66;;;25.41;39.74
70072;BME280;57434;42.794;23.302;2022-09-30T11:10:33;95646.16;;;25.19;36.56
70072;BME280;57434;42.794;23.302;2022-09-30T11:18:36;95635.16;;;24.74;39.20
70072;BME280;57434;42.794;23.302;2022-09-30T11:21:27;95490.31;;;23.31;40.41
70072;BME280;57434;42.794;23.302;2022-09-30T11:24:01;95634.25;;;24.88;38.61
70072;BME280;57434;42.794;23.302;2022-09-30T11:42:54;95509.50;;;24.55;38.34
70072;BME280;57434;42.794;23.302;2022-09-30T11:48:34;95647.41;;;24.49;39.17
70072;BME280;57434;42.794;23.302;2022-09-30T11:51:22;95641.31;;;24.45;39.31
70072;BME280;57434;42.794;23.302;2022-09-30T11:59:50;95623.50;;;24.72;38.61
70072;BME280;57434;42.794;23.302;2022-09-30T12:02:45;95620.16;;;24.83;39.25
70072;BME280;57434;42.794;23.302;2022-09-30T12:10:36;95656.19;;;25.11;39.18
70072;BME280;57434;42.794;23.302;2022-09-30T12:13:10;95646.38;;;25.66;37.64
70072;BME280;57434;42.794;23.302;2022-09-30T12:15:40;95555.88;;;25.13;36.95
70072;BME280;57434;42.794;23.302;2022-09-30T12:18:13;95544.16;;;24.49;38.28
70072;BME280;57434;42.794;23.302;2022-09-30T12:20:50;95537.31;;;24.27;38.51
70072;BME280;57434;42.794;23.302;2022-09-30T12:23:35;95638.47;;;25.05;37.93
70072;BME280;57434;42.794;23.302;2022-09-30T12:26:03;95535.84;;;24.19;38.25
70072;BME280;57434;42.794;23.302;2022-09-30T12:28:43;95635.09;;;24.81;37.56
70072;BME280;57434;42.794;23.302;2022-09-30T12:37:13;95490.94;;;24.73;35.76
70072;BME280;57434;42.794;23.302;2022-09-30T12:42:32;95672.78;;;25.99;35.89
70072;BME280;57434;42.794;23.302;2022-09-30T12:47:55;95504.88;;;25.84;34.51
70072;BME280;57434;42.794;23.302;2022-09-30T12:50:32;95492.28;;;25.70;34.62
70072;BME280;57434;42.794;23.302;2022-09-30T12:53:26;95517.78;;;25.93;34.52
70072;BME280;57434;42.794;23.302;2022-09-30T12:56:05;95530.44;;;26.07;35.09
70072;BME280;57434;42.794;23.302;2022-09-30T12:58:40;95503.50;;;25.76;33.66
70072;BME280;57434;42.794;23.302;2022-09-30T13:01:33;95509.13;;;25.83;33.31
70072;BME280;57434;42.794;23.302;2022-09-30T13:09:20;95649.47;;;26.68;33.61
70072;BME280;57434;42.794;23.302;2022-09-30T13:14:31;95639.97;;;26.94;33.67
70072;BME280;57434;42.794;23.302;2022-09-30T13:17:00;95636.63;;;26.97;33.64
70072;BME280;57434;42.794;23.302;2022-09-30T13:19:36;95576.06;;;26.30;33.91
70072;BME280;57434;42.794;23.302;2022-09-30T13:32:43;95543.31;;;26.16;33.20
70072;BME280;57434;42.794;23.302;2022-09-30T13:40:50;95497.44;;;25.18;33.83
70072;BME280;57434;42.794;23.302;2022-09-30T13:43:43;95650.06;;;26.29;34.28
70072;BME280;57434;42.794;23.302;2022-09-30T13:46:26;95548.94;;;25.33;34.30
70072;BME280;57434;42.794;23.302;2022-09-30T13:49:02;95519.22;;;25.21;33.58
70072;BME280;57434;42.794;23.302;2022-09-30T13:51:31;95653.56;;;26.38;32.80
70072;BME280;57434;42.794;23.302;2022-09-30T13:54:11;95639.03;;;26.36;32.74
70072;BME280;57434;42.794;23.302;2022-09-30T13:56:41;95664.19;;;26.81;32.28
70072;BME280;57434;42.794;23.302;2022-09-30T14:02:35;95654.00;;;26.71;32.75
70072;BME280;57434;42.794;23.302;2022-09-30T14:13:44;95663.91;;;26.87;32.48
70072;BME280;57434;42.794;23.302;2022-09-30T14:19:32;95673.78;;;26.57;33.23
70072;BME280;57434;42.794;23.302;2022-09-30T14:22:06;95672.63;;;25.79;34.64
70072;BME280;57434;42.794;23.302;2022-09-30T14:24:35;95681.69;;;25.58;34.55
70072;BME280;57434;42.794;23.302;2022-09-30T14:27:44;95681.00;;;25.68;34.44
70072;BME280;57434;42.794;23.302;2022-09-30T14:30:19;95683.78;;;25.75;34.50
70072;BME280;57434;42.794;23.302;2022-09-30T14:32:58;95575.69;;;24.91;34.48
70072;BME280;57434;42.794;23.302;2022-09-30T14:35:34;95649.88;;;25.47;34.53
70072;BME280;57434;42.794;23.302;2022-09-30T14:38:24;95716.00;;;25.56;34.58
70072;BME280;57434;42.794;23.302;2022-09-30T14:40:53;95686.78;;;25.50;34.72
70072;BME280;57434;42.794;23.302;2022-09-30T14:43:24;95695.25;;;25.48;35.18
70072;BME280;57434;42.794;23.302;2022-09-30T14:45:54;95585.91;;;24.43;34.87
70072;BME280;57434;42.794;23.302;2022-09-30T14:48:22;95692.28;;;25.39;35.58
70072;BME280;57434;42.794;23.302;2022-09-30T14:53:32;95585.66;;;24.48;35.01
70072;BME280;57434;42.794;23.302;2022-09-30T14:56:01;95603.19;;;24.35;35.53
70072;BME280;57434;42.794;23.302;2022-09-30T14:58:39;95707.69;;;25.09;35.76
70072;BME280;57434;42.794;23.302;2022-09-30T15:01:14;95676.28;;;24.93;36.64
70072;BME280;57434;42.794;23.302;2022-09-30T15:03:44;95490.19;;;23.46;35.80
70072;BME280;57434;42.794;23.302;2022-09-30T15:06:20;95526.69;;;23.71;35.72
70072;BME280;57434;42.794;23.302;2022-09-30T15:08:48;95703.94;;;24.81;36.10
70072;BME280;57434;42.794;23.302;2022-09-30T15:11:21;95702.75;;;24.67;35.56
70072;BME280;57434;42.794;23.302;2022-09-30T15:13:57;95573.97;;;23.54;35.58
70072;BME280;57434;42.794;23.302;2022-09-30T15:16:27;95704.28;;;24.60;36.36
70072;BME280;57434;42.794;23.302;2022-09-30T15:18:56;95729.34;;;24.60;36.01
70072;BME280;57434;42.794;23.302;2022-09-30T15:21:26;95560.81;;;23.51;36.99
70072;BME280;57434;42.794;23.302;2022-09-30T15:23:55;95607.28;;;23.67;37.12
70072;BME280;57434;42.794;23.302;2022-09-30T15:26:24;95615.41;;;23.53;37.21
70072;BME280;57434;42.794;23.302;2022-09-30T15:28:52;95716.50;;;24.11;37.83
70072;BME280;57434;42.794;23.302;2022-09-30T15:31:24;95570.59;;;22.93;38.50
70072;BME280;57434;42.794;23.302;2022-09-30T15:34:14;95694.31;;;23.32;39.08
70072;BME280;57434;42.794;23.302;2022-09-30T15:36:59;95735.03;;;23.62;39.29
70072;BME280;57434;42.794;23.302;2022-09-30T15:39:27;95601.41;;;22.47;39.36
70072;BME280;57434;42.794;23.302;2022-09-30T15:41:56;95630.56;;;22.53;40.09
70072;BME280;57434;42.794;23.302;2022-09-30T15:44:36;95742.22;;;23.16;40.60
70072;BME280;57434;42.794;23.302;2022-09-30T15:47:06;95619.53;;;22.19;41.29
70072;BME280;57434;42.794;23.302;2022-09-30T15:52:24;95740.00;;;22.76;44.57
70072;BME280;57434;42.794;23.302;2022-09-30T15:54:52;95742.63;;;22.51;46.85
70072;BME280;57434;42.794;23.302;2022-09-30T16:00:38;95689.47;;;21.59;45.46
70072;BME280;57434;42.794;23.302;2022-09-30T16:03:27;95762.22;;;21.73;47.99
70072;BME280;57434;42.794;23.302;2022-09-30T16:08:45;95551.44;;;19.69;51.33
70072;BME280;57434;42.794;23.302;2022-09-30T16:11:20;95528.28;;;19.44;51.90
70072;BME280;57434;42.794;23.302;2022-09-30T16:13:49;95670.19;;;20.02;52.50
70072;BME280;57434;42.794;23.302;2022-09-30T16:16:28;95786.88;;;20.70;52.95
70072;BME280;57434;42.794;23.302;2022-09-30T16:18:57;95635.28;;;18.73;54.93
70072;BME280;57434;42.794;23.302;2022-09-30T16:21:48;95796.16;;;19.95;55.91
70072;BME280;57434;42.794;23.302;2022-09-30T16:27:23;95677.47;;;19.09;56.38
70072;BME280;57434;42.794;23.302;2022-09-30T16:29:51;95576.19;;;18.32;57.91
70072;BME280;57434;42.794;23.302;2022-09-30T16:32:18;95842.19;;;19.86;58.18
70072;BME280;57434;42.794;23.302;2022-09-30T16:34:45;95680.88;;;18.81;58.40
70072;BME280;57434;42.794;23.302;2022-09-30T16:37:13;95825.47;;;19.69;58.03
70072;BME280;57434;42.794;23.302;2022-09-30T16:39:43;95817.91;;;19.58;57.72
70072;BME280;57434;42.794;23.302;2022-09-30T16:42:13;95686.47;;;18.73;57.22
70072;BME280;57434;42.794;23.302;2022-09-30T16:44:41;95829.53;;;19.60;58.68
70072;BME280;57434;42.794;23.302;2022-09-30T16:47:12;95855.03;;;19.66;58.41
70072;BME280;57434;42.794;23.302;2022-09-30T16:49:39;95645.53;;;18.23;58.80
70072;BME280;57434;42.794;23.302;2022-09-30T16:52:06;95840.94;;;19.47;59.51
70072;BME280;57434;42.794;23.302;2022-09-30T16:54:33;95683.44;;;18.26;58.88
70072;BME280;57434;42.794;23.302;2022-09-30T16:57:00;95648.09;;;17.95;60.22
70072;BME280;57434;42.794;23.302;2022-09-30T16:59:26;95731.72;;;18.26;61.79
70072;BME280;57434;42.794;23.302;2022-09-30T17:01:53;95733.56;;;18.23;62.44
70072;BME280;57434;42.794;23.302;2022-09-30T17:04:21;95869.88;;;18.74;63.11
70072;BME280;57434;42.794;23.302;2022-09-30T17:06:48;95843.53;;;18.60;62.70